createdAt,value
2017-09-04T00:00:12.939Z,89.53
2017-09-04T00:02:41.291Z,89.32
2017-09-04T00:05:09.622Z,89.78
2017-09-04T00:07:37.982Z,88.81
2017-09-04T00:10:06.408Z,89.83
2017-09-04T00:12:34.795Z,88.96
2017-09-04T00:15:03.147Z,88.93
2017-09-04T00:17:31.571Z,88.74
2017-09-04T00:19:59.898Z,88.95
2017-09-04T00:22:28.459Z,88.62
2017-09-04T00:24:57.042Z,89.08
2017-09-04T00:27:25.366Z,89.46
2017-09-04T00:29:53.734Z,89.09
2017-09-04T00:32:22.132Z,88.82
2017-09-04T00:34:50.942Z,88.48
2017-09-04T00:37:19.270Z,88.81
2017-09-04T00:39:47.599Z,88.91
2017-09-04T00:42:15.951Z,89.46
2017-09-04T00:44:44.386Z,88.62
2017-09-04T00:47:12.751Z,89.10
2017-09-04T00:49:41.182Z,89.25
2017-09-04T00:52:09.511Z,90.12
2017-09-04T00:54:37.883Z,89.49
2017-09-04T00:57:06.251Z,89.14
2017-09-04T00:59:34.603Z,89.07
2017-09-04T01:02:03.087Z,89.26
2017-09-04T01:04:31.447Z,90.02
2017-09-04T01:06:59.802Z,89.56
2017-09-04T01:09:28.199Z,89.33
2017-09-04T01:11:56.562Z,89.80
2017-09-04T01:14:24.900Z,90.83
2017-09-04T01:16:53.267Z,89.97
2017-09-04T01:19:21.631Z,89.05
2017-09-04T01:21:49.964Z,89.05
2017-09-04T01:24:18.343Z,89.86
2017-09-04T01:26:46.764Z,89.12
2017-09-04T01:29:15.101Z,88.87
2017-09-04T01:31:43.466Z,88.70
2017-09-04T01:34:11.794Z,88.81
2017-09-04T01:36:40.127Z,89.29
2017-09-04T01:39:08.474Z,88.72
2017-09-04T01:41:36.803Z,88.85
2017-09-04T01:44:05.172Z,88.67
2017-09-04T01:46:33.543Z,88.03
2017-09-04T01:49:01.954Z,88.77
2017-09-04T01:51:30.342Z,90.20
2017-09-04T01:53:58.735Z,89.63
2017-09-04T01:56:27.132Z,89.27
2017-09-04T01:58:55.463Z,89.23
2017-09-04T02:01:23.823Z,89.67
2017-09-04T02:03:52.203Z,89.57
2017-09-04T02:06:20.539Z,89.72
2017-09-04T02:08:48.978Z,90.32
2017-09-04T02:11:17.334Z,90.60
2017-09-04T02:13:45.758Z,91.42
2017-09-04T02:16:14.119Z,90.33
2017-09-04T02:18:42.447Z,88.64
2017-09-04T02:21:10.848Z,89.08
2017-09-04T02:23:39.174Z,89.77
2017-09-04T02:26:07.552Z,90.11
2017-09-04T02:28:35.902Z,89.18
2017-09-04T02:31:04.261Z,89.80
2017-09-04T02:33:32.595Z,90.46
2017-09-04T02:36:00.986Z,89.63
2017-09-04T02:38:29.335Z,90.21
2017-09-04T02:40:57.763Z,90.06
2017-09-04T02:43:26.534Z,90.15
2017-09-04T02:45:54.916Z,89.10
2017-09-04T02:48:23.263Z,89.01
2017-09-04T02:50:51.628Z,89.25
2017-09-04T02:53:20.007Z,89.40
2017-09-04T02:55:48.334Z,89.52
2017-09-04T02:58:16.668Z,89.84
2017-09-04T03:00:45.014Z,90.51
2017-09-04T03:03:13.385Z,90.85
2017-09-04T03:05:41.715Z,91.08
2017-09-04T03:08:10.093Z,90.51
2017-09-04T03:10:38.419Z,91.13
2017-09-04T03:13:06.750Z,90.97
2017-09-04T03:15:35.144Z,91.50
2017-09-04T03:18:03.471Z,90.97
2017-09-04T03:20:31.948Z,91.15
2017-09-04T03:23:00.311Z,91.06
2017-09-04T03:25:28.707Z,91.43
2017-09-04T03:27:57.238Z,91.29
2017-09-04T03:30:25.618Z,92.26
2017-09-04T03:32:53.951Z,91.44
2017-09-04T03:35:22.376Z,91.42
2017-09-04T03:37:50.713Z,91.31
2017-09-04T03:40:19.075Z,91.63
2017-09-04T03:42:47.415Z,91.59
2017-09-04T03:45:15.864Z,91.76
2017-09-04T03:47:44.227Z,92.27
2017-09-04T03:50:12.570Z,91.55
2017-09-04T03:52:40.931Z,91.86
2017-09-04T03:55:09.276Z,91.69
2017-09-04T03:57:37.627Z,91.40
2017-09-04T04:00:06.147Z,91.67
2017-09-04T04:02:34.522Z,91.11
2017-09-04T04:05:02.902Z,91.53
2017-09-04T04:07:31.363Z,91.42
2017-09-04T04:09:59.877Z,90.48
2017-09-04T04:12:28.235Z,90.50
2017-09-04T04:14:56.646Z,90.31
2017-09-04T04:17:24.990Z,89.97
2017-09-04T04:19:53.366Z,90.34
2017-09-04T04:22:21.810Z,90.34
2017-09-04T04:24:50.199Z,90.39
2017-09-04T04:27:18.547Z,89.35
2017-09-04T04:29:47.008Z,89.77
2017-09-04T04:32:15.396Z,90.65
2017-09-04T04:34:43.739Z,90.21
2017-09-04T04:37:12.151Z,90.72
2017-09-04T04:39:40.547Z,90.65
2017-09-04T04:42:08.891Z,90.66
2017-09-04T04:44:37.331Z,91.18
2017-09-04T04:47:05.718Z,91.50
2017-09-04T04:49:34.063Z,91.15
2017-09-04T04:52:02.443Z,90.93
2017-09-04T04:54:30.810Z,91.17
2017-09-04T04:56:59.158Z,91.19
2017-09-04T04:59:27.595Z,90.95
2017-09-04T05:01:56.067Z,91.14
2017-09-04T05:04:24.443Z,91.59
2017-09-04T05:06:52.851Z,91.24
2017-09-04T05:09:21.373Z,90.77
2017-09-04T05:11:49.714Z,90.26
2017-09-04T05:14:18.130Z,90.23
2017-09-04T05:16:46.478Z,90.46
2017-09-04T05:19:14.855Z,90.76
2017-09-04T05:21:43.314Z,90.83
2017-09-04T05:24:11.655Z,90.48
2017-09-04T05:26:40.020Z,90.20
2017-09-04T05:29:08.377Z,90.15
2017-09-04T05:31:36.742Z,90.34
2017-09-04T05:34:05.114Z,90.12
2017-09-04T05:36:33.487Z,90.03
2017-09-04T05:39:01.916Z,89.60
2017-09-04T05:41:30.254Z,90.89
2017-09-04T05:43:58.635Z,89.68
2017-09-04T05:46:27.823Z,88.81
2017-09-04T05:48:56.161Z,88.48
2017-09-04T05:51:24.507Z,87.79
2017-09-04T05:53:52.860Z,86.74
2017-09-04T05:56:21.247Z,85.95
2017-09-04T05:58:49.683Z,85.26
2017-09-04T06:01:18.099Z,85.32
2017-09-04T06:03:46.436Z,83.40
2017-09-04T06:06:14.810Z,82.84
2017-09-04T06:08:43.159Z,83.06
2017-09-04T06:11:11.534Z,83.15
2017-09-04T06:13:39.875Z,82.44
2017-09-04T06:16:08.314Z,83.20
2017-09-04T06:18:36.703Z,82.45
2017-09-04T06:21:05.047Z,78.27
2017-09-04T06:23:33.518Z,72.06
2017-09-04T06:26:01.891Z,67.90
2017-09-04T06:28:30.279Z,64.69
2017-09-04T06:30:58.628Z,57.39
2017-09-04T06:33:27.054Z,54.66
2017-09-04T06:35:55.447Z,50.19
2017-09-04T06:38:23.823Z,48.88
2017-09-04T06:40:52.206Z,46.76
2017-09-04T06:43:20.627Z,45.19
2017-09-04T06:45:49.041Z,44.07
2017-09-04T06:48:17.383Z,42.87
2017-09-04T06:50:45.723Z,39.33
2017-09-04T06:53:14.286Z,39.07
2017-09-04T06:55:42.630Z,39.76
2017-09-04T06:58:11.067Z,40.57
2017-09-04T07:00:39.411Z,38.66
2017-09-04T07:03:08.258Z,41.21
2017-09-04T07:05:37.062Z,40.34
2017-09-04T07:08:05.451Z,37.18
2017-09-04T07:10:33.851Z,38.68
2017-09-04T07:13:02.391Z,36.36
2017-09-04T07:15:30.726Z,38.34
2017-09-04T07:17:59.070Z,38.20
2017-09-04T07:20:27.442Z,36.91
2017-09-04T07:22:56.054Z,37.29
2017-09-04T07:25:24.410Z,39.13
2017-09-04T07:27:52.758Z,37.53
2017-09-04T07:30:21.102Z,36.82
2017-09-04T07:32:49.574Z,36.51
2017-09-04T07:35:17.915Z,36.65
2017-09-04T07:37:46.286Z,36.90
2017-09-04T07:40:14.648Z,37.12
2017-09-04T07:42:43.035Z,37.43
2017-09-04T07:45:11.383Z,36.92
2017-09-04T07:47:39.790Z,37.19
2017-09-04T07:50:08.530Z,36.28
2017-09-04T07:52:36.921Z,35.03
2017-09-04T07:55:05.305Z,35.35
2017-09-04T07:57:33.669Z,34.42
2017-09-04T08:00:01.998Z,35.83
2017-09-04T08:02:30.360Z,34.06
2017-09-04T08:04:58.763Z,34.75
2017-09-04T08:07:27.102Z,35.52
2017-09-04T08:09:55.450Z,33.27
2017-09-04T08:12:23.839Z,34.16
2017-09-04T08:14:52.199Z,35.19
2017-09-04T08:17:20.630Z,35.36
2017-09-04T08:19:48.987Z,35.80
2017-09-04T08:22:17.334Z,40.53
2017-09-04T08:24:45.815Z,39.81
2017-09-04T08:27:14.190Z,37.82
2017-09-04T08:29:42.523Z,35.74
2017-09-04T08:32:10.866Z,32.93
2017-09-04T08:34:39.219Z,33.93
2017-09-04T08:37:07.642Z,32.82
2017-09-04T08:39:35.978Z,33.97
2017-09-04T08:42:04.335Z,37.77
2017-09-04T08:44:32.671Z,39.91
2017-09-04T08:47:01.211Z,36.61
2017-09-04T08:49:29.549Z,32.98
2017-09-04T08:51:57.990Z,34.44
2017-09-04T08:54:26.335Z,32.36
2017-09-04T08:56:54.772Z,32.89
2017-09-04T08:59:23.274Z,32.36
2017-09-04T09:01:51.662Z,31.93
2017-09-04T09:04:20.082Z,32.37
2017-09-04T09:06:48.431Z,31.29
2017-09-04T09:09:16.830Z,29.73
2017-09-04T09:11:45.560Z,30.80
2017-09-04T09:14:13.887Z,31.67
2017-09-04T09:16:42.323Z,34.64
2017-09-04T09:19:10.651Z,33.85
2017-09-04T09:21:38.978Z,31.33
2017-09-04T09:24:07.355Z,30.13
2017-09-04T09:26:35.695Z,34.72
2017-09-04T09:29:04.084Z,39.29
2017-09-04T09:31:32.435Z,41.30
2017-09-04T09:34:00.779Z,43.62
2017-09-04T09:36:29.116Z,44.00
2017-09-04T09:38:57.471Z,44.77
2017-09-04T09:41:25.927Z,44.48
2017-09-04T09:43:54.318Z,43.41
2017-09-04T09:46:22.711Z,43.75
2017-09-04T09:48:51.078Z,42.79
2017-09-04T09:51:19.420Z,43.89
2017-09-04T09:53:47.774Z,45.13
2017-09-04T09:56:16.124Z,44.41
2017-09-04T09:58:44.466Z,46.54
2017-09-04T10:01:12.831Z,47.44
2017-09-04T10:03:41.165Z,46.83
2017-09-04T10:06:09.856Z,47.43
2017-09-04T10:08:38.196Z,43.90
2017-09-04T10:11:06.559Z,37.08
2017-09-04T10:13:34.887Z,34.15
2017-09-04T10:16:03.252Z,30.59
2017-09-04T10:18:31.585Z,29.13
2017-09-04T10:20:59.943Z,28.69
2017-09-04T10:23:28.306Z,28.49
2017-09-04T10:25:56.669Z,29.19
2017-09-04T10:28:25.006Z,27.56
2017-09-04T10:30:53.367Z,27.37
2017-09-04T10:33:21.695Z,27.41
2017-09-04T10:35:50.059Z,30.38
2017-09-04T10:38:18.393Z,34.44
2017-09-04T10:40:46.762Z,37.10
2017-09-04T10:43:15.090Z,37.42
2017-09-04T10:45:43.426Z,40.03
2017-09-04T10:48:11.759Z,40.89
2017-09-04T10:50:40.260Z,42.39
2017-09-04T10:53:08.595Z,41.57
2017-09-04T10:55:36.927Z,40.26
2017-09-04T10:58:05.330Z,33.97
2017-09-04T11:00:33.711Z,30.96
2017-09-04T11:03:02.131Z,27.56
2017-09-04T11:05:30.462Z,28.82
2017-09-04T11:07:58.827Z,32.43
2017-09-04T11:10:27.170Z,34.92
2017-09-04T11:12:55.565Z,38.23
2017-09-04T11:15:25.439Z,39.14
2017-09-04T11:17:53.828Z,40.47
2017-09-04T11:20:22.399Z,42.85
2017-09-04T11:22:50.739Z,42.99
2017-09-04T11:25:19.090Z,44.39
2017-09-04T11:27:47.427Z,44.04
2017-09-04T11:30:15.758Z,43.38
2017-09-04T11:32:44.120Z,43.69
2017-09-04T11:35:12.472Z,44.18
2017-09-04T11:37:41.063Z,42.91
2017-09-04T11:40:09.395Z,39.15
2017-09-04T11:42:37.727Z,35.18
2017-09-04T11:45:06.071Z,31.73
2017-09-04T11:47:34.416Z,30.80
2017-09-04T11:50:02.893Z,28.80
2017-09-04T11:52:31.218Z,30.06
2017-09-04T11:54:59.591Z,30.97
2017-09-04T11:57:27.953Z,29.46
2017-09-04T11:59:56.286Z,27.38
2017-09-04T12:02:24.631Z,28.12
2017-09-04T12:04:52.995Z,30.44
2017-09-04T12:07:21.335Z,30.91
2017-09-04T12:09:49.719Z,33.97
2017-09-04T12:12:18.066Z,33.32
2017-09-04T12:14:46.398Z,36.60
2017-09-04T12:17:14.730Z,40.35
2017-09-04T12:19:43.069Z,39.12
2017-09-04T12:22:11.571Z,39.98
2017-09-04T12:24:39.911Z,39.33
2017-09-04T12:27:08.246Z,38.92
2017-09-04T12:29:36.579Z,37.54
2017-09-04T12:32:04.965Z,38.75
2017-09-04T12:34:33.314Z,39.85
2017-09-04T12:37:01.654Z,39.13
2017-09-04T12:39:30.024Z,37.24
2017-09-04T12:41:58.495Z,40.83
2017-09-04T12:44:26.860Z,38.31
2017-09-04T12:46:55.219Z,38.98
2017-09-04T12:49:23.555Z,38.06
2017-09-04T12:51:51.954Z,37.90
2017-09-04T12:54:20.303Z,38.92
2017-09-04T12:56:48.676Z,40.02
2017-09-04T12:59:17.007Z,40.07
2017-09-04T13:01:45.538Z,41.33
2017-09-04T13:04:14.620Z,42.39
2017-09-04T13:06:43.021Z,40.91
2017-09-04T13:09:11.407Z,41.49
2017-09-04T13:15:03.558Z,40.38
2017-09-04T13:20:40.442Z,37.90
2017-09-04T13:23:14.530Z,38.51
2017-09-04T13:25:48.650Z,37.93
2017-09-04T13:31:31.315Z,37.91
2017-09-04T13:34:05.234Z,38.25
2017-09-04T13:36:39.075Z,39.18
2017-09-04T13:39:13.120Z,40.47
2017-09-04T13:41:47.051Z,41.06
2017-09-04T13:44:21.154Z,41.36
2017-09-04T13:50:00.762Z,42.20
2017-09-04T13:55:44.575Z,38.98
2017-09-04T13:58:18.410Z,39.53
2017-09-04T14:00:52.355Z,39.20
2017-09-04T14:03:21.640Z,39.16
2017-09-04T14:05:55.485Z,39.66
2017-09-04T14:08:38.730Z,41.37
2017-09-04T14:14:15.780Z,43.49
2017-09-04T14:16:49.646Z,44.55
2017-09-04T14:19:18.010Z,45.32
2017-09-04T14:21:46.387Z,43.22
2017-09-04T14:24:14.715Z,44.54
2017-09-04T14:26:43.050Z,42.38
2017-09-04T14:29:11.470Z,44.13
2017-09-04T14:31:39.827Z,44.67
2017-09-04T14:34:08.166Z,44.63
2017-09-04T14:36:36.531Z,44.80
2017-09-04T14:39:04.863Z,44.73
2017-09-04T14:41:33.199Z,45.53
2017-09-04T14:47:00.496Z,47.45
2017-09-04T14:49:28.869Z,46.83
2017-09-04T14:51:57.279Z,46.30
2017-09-04T14:54:25.598Z,45.16
2017-09-04T14:56:53.975Z,44.28
2017-09-04T14:59:22.306Z,43.49
2017-09-04T15:01:50.670Z,41.17
2017-09-04T15:04:19.026Z,40.95
2017-09-04T15:06:47.390Z,39.95
2017-09-04T15:09:15.723Z,40.64
2017-09-04T15:11:44.087Z,39.73
2017-09-04T15:14:12.724Z,40.79
2017-09-04T15:16:41.115Z,41.11
2017-09-04T15:19:09.451Z,40.61
2017-09-04T15:21:37.795Z,40.48
2017-09-04T15:24:06.158Z,39.42
2017-09-04T15:26:34.511Z,39.30
2017-09-04T15:29:03.258Z,42.38
2017-09-04T15:31:31.587Z,42.09
2017-09-04T15:33:59.958Z,41.96
2017-09-04T15:36:28.299Z,38.70
2017-09-04T15:38:56.628Z,39.78
2017-09-04T15:41:24.987Z,38.03
2017-09-04T15:43:53.386Z,39.65
2017-09-04T15:46:21.718Z,40.40
2017-09-04T15:48:50.046Z,40.39
2017-09-04T15:51:18.382Z,41.29
2017-09-04T15:53:46.866Z,42.37
2017-09-04T15:56:15.198Z,42.18
2017-09-04T15:58:43.538Z,42.44
2017-09-04T16:01:11.894Z,41.61
2017-09-04T16:03:40.227Z,42.64
2017-09-04T16:06:11.033Z,43.69
2017-09-04T16:08:39.390Z,42.05
2017-09-04T16:11:07.748Z,43.11
2017-09-04T16:13:39.654Z,43.41
2017-09-04T16:16:08.695Z,43.01
2017-09-04T16:21:40.182Z,44.16
2017-09-04T16:27:16.518Z,44.65
2017-09-04T16:29:48.923Z,44.47
2017-09-04T16:32:19.696Z,43.71
2017-09-04T16:37:57.954Z,44.62
2017-09-04T16:40:26.283Z,44.75
2017-09-04T16:42:54.618Z,46.60
2017-09-04T16:48:45.439Z,47.46
2017-09-04T16:54:23.126Z,49.17
2017-09-04T16:57:06.371Z,50.73
2017-09-04T16:59:34.795Z,48.43
2017-09-04T17:02:03.271Z,48.67
2017-09-04T17:04:31.603Z,49.28
2017-09-04T17:06:59.940Z,50.03
2017-09-04T17:09:28.582Z,51.15
2017-09-04T17:11:56.941Z,52.15
2017-09-04T17:14:25.326Z,52.50
2017-09-04T17:16:53.666Z,53.72
2017-09-04T17:19:26.634Z,55.61
2017-09-04T17:22:12.129Z,57.14
2017-09-04T17:24:45.312Z,58.52
2017-09-04T17:27:13.674Z,60.15
2017-09-04T17:29:42.018Z,59.79
2017-09-04T17:32:10.380Z,60.64
2017-09-04T17:34:38.720Z,61.88
2017-09-04T17:37:07.057Z,60.52
2017-09-04T17:39:35.390Z,61.11
2017-09-04T17:42:03.744Z,62.55
2017-09-04T17:44:32.103Z,63.81
2017-09-04T17:47:00.458Z,64.61
2017-09-04T17:49:28.924Z,66.11
2017-09-04T17:51:57.275Z,66.87
2017-09-04T17:54:25.615Z,66.84
2017-09-04T17:56:53.942Z,67.37
2017-09-04T17:59:22.311Z,67.47
2017-09-04T18:01:50.710Z,66.68
2017-09-04T18:04:19.065Z,67.16
2017-09-04T18:06:47.401Z,66.66
2017-09-04T18:09:15.738Z,67.77
2017-09-04T18:11:44.115Z,66.98
2017-09-04T18:14:12.454Z,67.09
2017-09-04T18:16:40.791Z,68.04
2017-09-04T18:19:09.158Z,68.44
2017-09-04T18:21:37.498Z,67.80
2017-09-04T18:24:05.851Z,68.72
2017-09-04T18:26:34.234Z,69.84
2017-09-04T18:29:02.573Z,70.30
2017-09-04T18:31:30.922Z,70.25
2017-09-04T18:33:59.263Z,70.50
2017-09-04T18:36:27.627Z,71.32
2017-09-04T18:38:55.959Z,72.19
2017-09-04T18:41:24.323Z,72.98
2017-09-04T18:43:53.047Z,73.34
2017-09-04T18:46:21.378Z,74.40
2017-09-04T18:48:49.869Z,74.99
2017-09-04T18:51:18.195Z,75.56
2017-09-04T18:53:46.531Z,76.42
2017-09-04T18:56:14.902Z,76.32
2017-09-04T18:58:43.234Z,75.58
2017-09-04T19:01:11.579Z,75.77
2017-09-04T19:03:39.919Z,76.20
2017-09-04T19:06:08.286Z,76.24
2017-09-04T19:08:36.620Z,76.68
2017-09-04T19:11:05.014Z,76.97
2017-09-04T19:13:33.371Z,77.24
2017-09-04T19:16:02.058Z,77.13
2017-09-04T19:18:30.431Z,77.71
2017-09-04T19:20:58.767Z,77.66
2017-09-04T19:23:27.105Z,76.15
2017-09-04T19:25:55.434Z,76.89
2017-09-04T19:28:23.801Z,76.47
2017-09-04T19:30:52.174Z,76.09
2017-09-04T19:33:20.511Z,76.53
2017-09-04T19:35:48.878Z,76.38
2017-09-04T19:38:17.246Z,76.55
2017-09-04T19:40:45.586Z,76.39
2017-09-04T19:43:13.922Z,76.44
2017-09-04T19:45:42.258Z,76.57
2017-09-04T19:48:10.651Z,76.89
2017-09-04T19:50:39.030Z,77.30
2017-09-04T19:53:07.392Z,76.43
2017-09-04T19:55:35.753Z,77.53
2017-09-04T19:58:04.090Z,77.12
2017-09-04T20:00:32.460Z,77.96
2017-09-04T20:03:00.786Z,77.26
2017-09-04T20:05:29.125Z,77.20
2017-09-04T20:07:57.497Z,77.71
2017-09-04T20:10:25.827Z,77.86
2017-09-04T20:12:54.162Z,78.09
2017-09-04T20:15:22.524Z,78.20
2017-09-04T20:17:50.868Z,79.14
2017-09-04T20:20:19.223Z,79.88
2017-09-04T20:22:47.587Z,79.69
2017-09-04T20:25:15.936Z,79.74
2017-09-04T20:27:44.268Z,78.88
2017-09-04T20:30:12.683Z,79.40
2017-09-04T20:32:41.014Z,79.61
2017-09-04T20:35:09.484Z,80.36
2017-09-04T20:37:37.826Z,80.65
2017-09-04T20:40:06.182Z,81.16
2017-09-04T20:42:34.523Z,80.94
2017-09-04T20:45:02.957Z,80.46
2017-09-04T20:47:31.423Z,81.70
2017-09-04T20:49:59.754Z,82.28
2017-09-04T20:52:28.123Z,82.24
2017-09-04T20:54:56.454Z,82.79
2017-09-04T20:57:24.790Z,82.20
2017-09-04T20:59:53.129Z,82.31
2017-09-04T21:02:21.511Z,82.49
2017-09-04T21:04:49.851Z,82.74
2017-09-04T21:07:18.210Z,83.13
2017-09-04T21:09:46.578Z,82.08
2017-09-04T21:12:14.971Z,82.78
2017-09-04T21:14:43.335Z,82.83
2017-09-04T21:17:11.671Z,83.65
2017-09-04T21:19:40.015Z,84.45
2017-09-04T21:22:08.379Z,84.82
2017-09-04T21:24:36.728Z,85.19
2017-09-04T21:27:05.271Z,85.25
2017-09-04T21:29:33.611Z,85.18
2017-09-04T21:32:01.951Z,84.86
2017-09-04T21:34:31.054Z,84.95
2017-09-04T21:36:59.398Z,84.98
2017-09-04T21:39:27.775Z,84.97
2017-09-04T21:41:56.368Z,85.34
2017-09-04T21:44:25.071Z,85.91
2017-09-04T21:46:53.561Z,85.91
2017-09-04T21:49:21.943Z,86.54
2017-09-04T21:51:50.311Z,86.69
2017-09-04T21:54:19.439Z,86.94
2017-09-04T21:56:48.961Z,86.32
2017-09-04T21:59:18.358Z,86.35
2017-09-04T22:01:47.682Z,86.29
2017-09-04T22:04:16.638Z,86.54
2017-09-04T22:06:45.993Z,85.89
2017-09-04T22:09:15.341Z,85.81
2017-09-04T22:11:43.868Z,85.46
2017-09-04T22:14:13.207Z,85.53
2017-09-04T22:16:42.187Z,85.88
2017-09-04T22:19:11.639Z,85.80
2017-09-04T22:21:41.020Z,85.97
2017-09-04T22:24:10.432Z,86.08
2017-09-04T22:26:39.355Z,85.78
2017-09-04T22:29:08.299Z,85.66
2017-09-04T22:31:37.295Z,85.72
2017-09-04T22:34:06.254Z,86.21
2017-09-04T22:36:34.851Z,86.14
2017-09-04T22:39:04.608Z,86.09
2017-09-04T22:41:34.193Z,86.40
2017-09-04T22:44:03.150Z,86.08
2017-09-04T22:46:31.882Z,86.55
2017-09-04T22:49:00.861Z,86.60
2017-09-04T22:51:29.429Z,86.28
2017-09-04T22:53:58.252Z,86.05
2017-09-04T22:56:27.139Z,86.77
2017-09-04T22:59:06.687Z,86.95
2017-09-04T23:01:35.510Z,86.98
2017-09-04T23:04:04.133Z,86.91
2017-09-04T23:06:32.574Z,87.25
2017-09-04T23:09:02.011Z,87.41
2017-09-04T23:11:31.919Z,87.90
2017-09-04T23:14:01.255Z,87.90
2017-09-04T23:16:29.723Z,88.67
2017-09-04T23:18:59.055Z,88.28
2017-09-04T23:21:28.298Z,88.37
2017-09-04T23:23:56.964Z,88.10
2017-09-04T23:26:26.176Z,88.48
2017-09-04T23:28:55.646Z,88.48
2017-09-04T23:31:24.605Z,87.75
2017-09-04T23:33:53.508Z,88.02
2017-09-04T23:36:23.048Z,87.37
2017-09-04T23:38:52.477Z,87.42
2017-09-04T23:41:22.046Z,87.54
2017-09-04T23:43:51.068Z,88.32
2017-09-04T23:46:20.168Z,87.58
2017-09-04T23:48:49.378Z,86.54
2017-09-04T23:51:17.851Z,86.38
2017-09-04T23:53:46.712Z,85.94
2017-09-04T23:56:16.025Z,87.31
2017-09-04T23:58:45.412Z,87.34
